Ringsted, Denmark
Current Conditions -  °F | °C
As of 10:20 PM on Friday 19 Dec 2014 (Local Time) from EKRK Reporting Station
Scattered Clouds Scattered Clouds  
Wind Chill: 30°   Ceiling: Unl
Heat Index: 39°   Visibility: 6mi
Dew Point: 36°   Wind: 16mph
Humidity: 87%   Direction: 250°WSW
Pressure: 29.53"   Gusts: NA
Location:  55.44°N, 11.79°E
Report Text: EKRK 192120Z AUTO 25014KT 9999NDV FEW030/// SCT040///04/02 Q1000
Loading
Personal Weather Stations






























Interactive Weather Map New forecast layout! Learn more

10-Day Weather Forecast

Advertisements
Track Severe Weather on mobile